createdAt,value
2022-11-19T00:02:12.446Z,9.10
2022-11-19T00:04:40.564Z,8.70
2022-11-19T00:07:09.913Z,8.90
2022-11-19T00:09:37.963Z,9.10
2022-11-19T00:12:23.969Z,8.43
2022-11-19T00:14:52.047Z,9.10
2022-11-19T00:17:20.322Z,10.20
2022-11-19T00:19:48.181Z,9.33
2022-11-19T00:22:17.490Z,10.10
2022-11-19T00:24:45.490Z,10.63
2022-11-19T00:27:13.485Z,9.57
2022-11-19T00:29:41.497Z,9.93
2022-11-19T00:32:09.414Z,9.90
2022-11-19T00:34:39.351Z,9.07
2022-11-19T00:37:07.272Z,10.10
2022-11-19T00:39:36.631Z,9.73
2022-11-19T00:42:04.865Z,9.50
2022-11-19T00:44:37.136Z,10.23
2022-11-19T00:47:05.801Z,10.03
2022-11-19T00:49:33.850Z,10.83
2022-11-19T00:52:01.882Z,9.90
2022-11-19T00:54:29.803Z,10.60
2022-11-19T00:56:59.413Z,10.67
2022-11-19T00:59:27.620Z,10.40
2022-11-19T01:01:55.576Z,10.90
2022-11-19T01:04:23.699Z,10.60
2022-11-19T01:06:51.754Z,10.43
2022-11-19T01:09:20.071Z,10.47
2022-11-19T01:11:48.300Z,10.07
2022-11-19T01:14:17.638Z,10.13
2022-11-19T01:16:45.658Z,9.47
2022-11-19T01:19:17.169Z,8.93
2022-11-19T01:21:45.424Z,9.20
2022-11-19T01:24:13.312Z,8.37
2022-11-19T01:26:45.611Z,8.77
2022-11-19T01:29:14.268Z,8.43
2022-11-19T01:31:43.642Z,7.90
2022-11-19T01:34:11.567Z,7.83
2022-11-19T01:36:39.537Z,7.73
2022-11-19T01:39:07.449Z,8.37
2022-11-19T01:41:35.343Z,8.60
2022-11-19T01:44:05.274Z,9.00
2022-11-19T01:46:34.722Z,8.80
2022-11-19T01:49:08.287Z,9.03
2022-11-19T01:51:39.114Z,9.00
2022-11-19T01:54:11.906Z,8.47
2022-11-19T01:56:40.316Z,9.43
2022-11-19T01:59:15.284Z,8.93
2022-11-19T02:01:44.808Z,9.10
2022-11-19T02:04:16.684Z,9.70
2022-11-19T02:06:45.861Z,10.27
2022-11-19T02:09:13.863Z,10.07
2022-11-19T02:12:01.467Z,10.93
2022-11-19T02:14:54.892Z,10.80
2022-11-19T02:17:32.798Z,11.30
2022-11-19T02:20:34.819Z,11.33
2022-11-19T02:23:50.744Z,11.80
2022-11-19T02:26:51.091Z,12.10
2022-11-19T02:29:42.764Z,12.87
2022-11-19T02:32:16.939Z,13.83
2022-11-19T02:34:49.923Z,12.63
2022-11-19T02:37:23.487Z,14.17
2022-11-19T02:40:00.362Z,14.00
2022-11-19T02:42:35.456Z,13.03
2022-11-19T02:45:12.185Z,13.73
2022-11-19T02:47:42.879Z,14.07
2022-11-19T02:56:10.554Z,13.53
2022-11-19T02:58:59.258Z,13.87
2022-11-19T03:01:49.416Z,14.97
2022-11-19T03:04:31.116Z,14.80
2022-11-19T03:07:03.408Z,13.53
2022-11-19T03:09:33.130Z,14.80
2022-11-19T03:12:10.668Z,15.27
2022-11-19T03:15:08.052Z,15.53
2022-11-19T03:17:51.708Z,15.23
2022-11-19T03:20:26.514Z,14.83
2022-11-19T03:22:59.370Z,13.43
2022-11-19T03:25:29.861Z,15.20
2022-11-19T03:28:01.796Z,14.67
2022-11-19T03:30:31.698Z,14.30
2022-11-19T03:33:04.905Z,14.83
2022-11-19T03:35:37.262Z,15.30
2022-11-19T03:38:09.459Z,14.97
2022-11-19T03:40:38.456Z,15.37
2022-11-19T03:43:10.564Z,15.17
2022-11-19T03:45:43.336Z,15.30
2022-11-19T03:48:14.201Z,15.23
2022-11-19T03:50:48.533Z,15.80
2022-11-19T03:53:17.209Z,16.60
2022-11-19T03:55:48.191Z,15.70
2022-11-19T03:58:19.583Z,16.17
2022-11-19T04:00:47.506Z,16.30
2022-11-19T04:03:18.101Z,16.43
2022-11-19T04:05:46.090Z,16.40
2022-11-19T04:08:14.061Z,16.60
2022-11-19T04:10:43.228Z,16.73
2022-11-19T04:13:11.215Z,16.80
2022-11-19T04:15:39.133Z,16.43
2022-11-19T04:18:07.228Z,16.63
2022-11-19T04:20:36.633Z,17.10
2022-11-19T04:23:04.945Z,17.07
2022-11-19T04:25:32.898Z,17.87
2022-11-19T04:28:01.083Z,17.53
2022-11-19T04:30:30.078Z,16.30
2022-11-19T04:32:58.334Z,16.93
2022-11-19T04:35:30.467Z,17.33
2022-11-19T04:37:59.733Z,16.93
2022-11-19T04:40:27.779Z,17.30
2022-11-19T04:42:55.654Z,17.50
2022-11-19T04:45:23.895Z,18.93
2022-11-19T04:47:51.944Z,18.67
2022-11-19T04:50:19.968Z,17.97
2022-11-19T04:52:47.865Z,19.77
2022-11-19T04:55:17.479Z,18.47
2022-11-19T04:57:45.401Z,19.60
2022-11-19T05:00:14.686Z,19.50
2022-11-19T05:02:42.655Z,18.40
2022-11-19T05:05:11.159Z,17.93
2022-11-19T05:07:39.111Z,19.77
2022-11-19T05:10:07.922Z,19.50
2022-11-19T05:12:37.242Z,20.50
2022-11-19T05:15:06.465Z,20.70
2022-11-19T05:17:34.430Z,20.83
2022-11-19T05:20:02.706Z,22.30
2022-11-19T05:22:30.800Z,21.93
2022-11-19T05:24:58.691Z,21.40
2022-11-19T05:27:26.654Z,22.40
2022-11-19T05:29:56.036Z,22.03
2022-11-19T05:32:24.170Z,23.60
2022-11-19T05:34:52.095Z,22.13
2022-11-19T05:37:19.973Z,23.03
2022-11-19T05:39:48.328Z,25.43
2022-11-19T05:42:16.270Z,23.20
2022-11-19T05:44:44.240Z,23.93
2022-11-19T05:47:13.755Z,24.03
2022-11-19T05:49:41.745Z,25.20
2022-11-19T05:52:09.718Z,25.03
2022-11-19T05:54:39.238Z,25.50
2022-11-19T05:57:07.192Z,23.70
2022-11-19T05:59:38.446Z,23.30
2022-11-19T06:02:08.892Z,23.17
2022-11-19T06:04:38.136Z,23.90
2022-11-19T06:07:06.374Z,22.43
2022-11-19T06:09:34.432Z,23.03
2022-11-19T06:12:02.360Z,23.03
2022-11-19T06:14:30.327Z,23.17
2022-11-19T06:17:00.126Z,22.27
2022-11-19T06:19:28.305Z,22.57
2022-11-19T06:21:58.113Z,21.30
2022-11-19T06:24:27.418Z,21.83
2022-11-19T06:26:55.354Z,22.03
2022-11-19T06:29:23.568Z,21.17
2022-11-19T06:31:51.580Z,21.37
2022-11-19T06:34:19.497Z,22.10
2022-11-19T06:36:50.535Z,22.27
2022-11-19T06:39:20.744Z,21.93
2022-11-19T06:41:49.431Z,20.47
2022-11-19T06:44:17.732Z,20.57
2022-11-19T06:46:45.664Z,21.80
2022-11-19T06:49:19.687Z,20.23
2022-11-19T06:51:49.561Z,20.67
2022-11-19T06:54:17.796Z,21.10
2022-11-19T06:56:47.119Z,21.03
2022-11-19T06:59:15.422Z,20.60
2022-11-19T07:01:46.348Z,21.50
2022-11-19T07:04:14.492Z,20.53
2022-11-19T07:06:42.397Z,20.63
2022-11-19T07:09:10.633Z,21.50
2022-11-19T07:11:38.841Z,21.00
2022-11-19T07:14:09.772Z,19.90
2022-11-19T07:16:38.396Z,21.50
2022-11-19T07:19:08.192Z,20.70
2022-11-19T07:21:37.877Z,20.63
2022-11-19T07:24:09.128Z,21.27
2022-11-19T07:26:38.483Z,20.63
2022-11-19T07:29:09.914Z,19.80
2022-11-19T07:31:37.875Z,20.60
2022-11-19T07:34:08.091Z,20.43
2022-11-19T07:36:36.405Z,21.30
2022-11-19T07:39:04.688Z,20.37
2022-11-19T07:41:52.661Z,20.93
2022-11-19T07:44:22.044Z,20.03
2022-11-19T07:46:50.012Z,19.57
2022-11-19T07:49:18.375Z,20.03
2022-11-19T07:51:46.574Z,20.20
2022-11-19T07:54:15.137Z,19.37
2022-11-19T07:56:43.351Z,18.93
2022-11-19T07:59:11.411Z,19.93
2022-11-19T08:01:41.128Z,17.73
2022-11-19T08:04:09.215Z,18.13
2022-11-19T08:06:37.238Z,20.23
2022-11-19T08:09:06.396Z,19.50
2022-11-19T08:11:34.711Z,19.90
2022-11-19T08:14:02.819Z,20.67
2022-11-19T08:16:48.630Z,19.63
2022-11-19T08:19:18.838Z,20.40
2022-11-19T08:21:48.008Z,19.93
2022-11-19T08:24:18.117Z,20.63
2022-11-19T08:26:48.021Z,19.00
2022-11-19T08:29:17.207Z,20.30
2022-11-19T08:31:47.150Z,21.87
2022-11-19T08:34:17.468Z,20.10
2022-11-19T08:36:46.832Z,18.60
2022-11-19T08:39:14.835Z,17.70
2022-11-19T08:42:00.751Z,18.77
2022-11-19T08:44:48.652Z,19.13
2022-11-19T08:47:16.612Z,18.83
2022-11-19T08:49:45.932Z,19.27
2022-11-19T08:52:15.324Z,19.27
2022-11-19T08:54:43.252Z,18.77
2022-11-19T08:57:11.297Z,18.83
2022-11-19T08:59:39.218Z,18.27
2022-11-19T09:02:07.379Z,18.50
2022-11-19T09:04:35.488Z,18.37
2022-11-19T09:07:04.861Z,19.77
2022-11-19T09:09:32.811Z,18.57
2022-11-19T09:12:01.183Z,19.00
2022-11-19T09:14:29.263Z,18.30
2022-11-19T09:16:57.226Z,18.73
2022-11-19T09:19:29.732Z,20.43
2022-11-19T09:21:57.657Z,17.07
2022-11-19T09:24:27.569Z,19.33
2022-11-19T09:26:59.588Z,17.50
2022-11-19T09:29:30.309Z,17.13
2022-11-19T09:31:58.264Z,17.57
2022-11-19T09:34:26.287Z,16.67
2022-11-19T09:36:54.439Z,18.00
2022-11-19T09:39:22.658Z,18.17
2022-11-19T09:41:58.006Z,17.40
2022-11-19T09:44:42.850Z,16.07
2022-11-19T09:47:24.013Z,17.23
2022-11-19T09:50:04.028Z,16.40
2022-11-19T09:52:34.907Z,17.13
2022-11-19T09:55:03.932Z,16.40
2022-11-19T09:57:38.034Z,16.80
2022-11-19T10:00:09.657Z,16.30
2022-11-19T10:02:37.712Z,16.27
2022-11-19T10:05:06.901Z,16.47
2022-11-19T10:07:44.682Z,15.53
2022-11-19T10:10:30.878Z,17.20
2022-11-19T10:13:17.078Z,15.97
2022-11-19T10:15:57.896Z,16.87
2022-11-19T10:18:32.810Z,15.97
2022-11-19T10:21:08.134Z,15.77
2022-11-19T10:23:47.992Z,15.50
2022-11-19T10:26:18.268Z,16.30
2022-11-19T10:28:54.548Z,16.63
2022-11-19T10:31:29.308Z,16.70
2022-11-19T10:34:04.354Z,17.33
2022-11-19T10:36:38.070Z,17.40
2022-11-19T10:39:11.989Z,16.30
2022-11-19T10:41:46.660Z,17.27
2022-11-19T10:44:38.111Z,16.83
2022-11-19T10:47:06.761Z,16.23
2022-11-19T10:49:40.779Z,15.27
2022-11-19T10:52:19.058Z,15.33
2022-11-19T10:54:48.604Z,15.60
2022-11-19T10:57:20.215Z,13.80
2022-11-19T10:59:52.310Z,14.27
2022-11-19T11:02:28.134Z,14.23
2022-11-19T11:05:10.036Z,15.37
2022-11-19T11:07:53.196Z,14.50
2022-11-19T11:10:33.841Z,14.07
2022-11-19T11:13:26.900Z,16.40
2022-11-19T11:15:56.269Z,16.43
2022-11-19T11:18:28.272Z,15.40
2022-11-19T11:20:57.394Z,16.07
2022-11-19T11:23:27.446Z,14.30
2022-11-19T11:26:03.134Z,13.60
2022-11-19T11:28:31.168Z,14.13
2022-11-19T11:31:02.464Z,14.33
2022-11-19T11:33:33.742Z,15.03
2022-11-19T11:36:05.937Z,13.97
2022-11-19T11:38:40.527Z,13.50
2022-11-19T11:44:05.911Z,14.47
2022-11-19T11:46:44.528Z,13.87
2022-11-19T11:49:25.050Z,15.33
2022-11-19T11:52:14.398Z,15.13
2022-11-19T11:54:56.615Z,15.10
2022-11-19T11:57:27.936Z,14.40
2022-11-19T11:59:56.207Z,14.50
2022-11-19T12:02:30.416Z,15.93
2022-11-19T12:05:02.161Z,15.23
2022-11-19T12:07:53.025Z,15.77
2022-11-19T12:10:29.647Z,15.37
2022-11-19T12:13:24.644Z,15.77
2022-11-19T12:16:03.714Z,15.87
2022-11-19T12:18:40.106Z,14.73
2022-11-19T12:21:11.953Z,15.93
2022-11-19T12:23:53.884Z,15.20
2022-11-19T12:26:30.744Z,14.50
2022-11-19T12:29:11.846Z,14.83
2022-11-19T12:31:53.567Z,14.27
2022-11-19T12:34:47.821Z,15.70
2022-11-19T12:37:30.549Z,15.03
2022-11-19T12:40:05.797Z,15.90
2022-11-19T12:42:49.297Z,14.57
2022-11-19T12:45:25.097Z,14.33
2022-11-19T12:48:20.393Z,14.13
2022-11-19T12:50:56.869Z,13.80
2022-11-19T12:53:45.367Z,12.83
2022-11-19T12:56:24.696Z,13.03
2022-11-19T12:59:02.241Z,13.03
2022-11-19T13:01:35.201Z,12.73
2022-11-19T13:04:07.760Z,13.17
2022-11-19T13:06:43.835Z,12.80
2022-11-19T13:09:17.791Z,12.67
2022-11-19T13:11:52.660Z,13.27
2022-11-19T13:14:28.711Z,12.47
2022-11-19T13:16:57.897Z,13.50
2022-11-19T13:19:30.659Z,13.07
2022-11-19T13:22:03.134Z,13.70
2022-11-19T13:24:34.962Z,12.77
2022-11-19T13:27:05.585Z,12.77
2022-11-19T13:29:38.511Z,12.40
2022-11-19T13:32:14.803Z,11.97
2022-11-19T13:34:53.757Z,11.67
2022-11-19T13:37:36.020Z,13.23
2022-11-19T13:40:08.351Z,12.97
2022-11-19T13:43:17.260Z,11.77
2022-11-19T13:45:48.448Z,11.70
2022-11-19T13:48:24.931Z,12.33
2022-11-19T13:50:54.938Z,12.20
2022-11-19T13:53:31.904Z,11.63
2022-11-19T13:56:00.573Z,12.63
2022-11-19T13:58:34.411Z,12.33
2022-11-19T14:01:26.319Z,11.20
2022-11-19T14:04:14.490Z,12.27
2022-11-19T14:06:55.718Z,11.77
2022-11-19T14:09:33.529Z,12.37
2022-11-19T14:12:18.053Z,11.13
2022-11-19T14:15:18.516Z,11.70
2022-11-19T14:18:09.719Z,11.97
2022-11-19T14:20:57.931Z,11.10
2022-11-19T14:24:03.950Z,10.87
2022-11-19T14:27:17.235Z,11.00
2022-11-19T14:29:57.471Z,10.77
2022-11-19T14:32:48.138Z,10.80
2022-11-19T14:35:34.120Z,9.57
2022-11-19T14:38:29.308Z,10.93
2022-11-19T14:41:29.897Z,10.17
2022-11-19T14:44:12.957Z,10.00
2022-11-19T14:46:43.664Z,10.57
2022-11-19T14:49:38.880Z,10.23
2022-11-19T14:52:20.546Z,10.37
2022-11-19T14:54:56.357Z,9.57
2022-11-19T14:57:31.294Z,9.63
2022-11-19T15:00:03.284Z,10.37
2022-11-19T15:02:36.026Z,10.37
2022-11-19T15:05:08.477Z,9.80
2022-11-19T15:07:42.896Z,9.90
2022-11-19T15:10:33.312Z,9.37
2022-11-19T15:13:29.736Z,9.03
2022-11-19T15:16:06.550Z,9.47
2022-11-19T15:19:04.953Z,10.10
2022-11-19T15:22:09.793Z,12.87
2022-11-19T15:24:56.041Z,10.37
2022-11-19T15:27:37.793Z,10.43
2022-11-19T15:30:12.168Z,10.27
2022-11-19T15:33:04.915Z,9.90
2022-11-19T15:35:39.185Z,11.63
2022-11-19T15:38:20.197Z,10.30
2022-11-19T15:40:51.293Z,9.47
2022-11-19T15:43:26.139Z,9.60
2022-11-19T15:46:01.058Z,9.07
2022-11-19T15:48:38.440Z,9.17
2022-11-19T15:51:08.773Z,9.67
2022-11-19T15:53:36.742Z,10.07
2022-11-19T15:56:08.732Z,10.03
2022-11-19T15:58:40.303Z,9.37
2022-11-19T16:01:10.099Z,8.83
2022-11-19T16:03:40.522Z,8.60
2022-11-19T16:06:16.986Z,8.73
2022-11-19T16:08:46.218Z,9.30
2022-11-19T16:11:35.494Z,8.47
2022-11-19T16:14:21.063Z,7.97
2022-11-19T16:17:10.552Z,8.97
2022-11-19T16:19:41.251Z,9.13
2022-11-19T16:22:10.005Z,9.00
2022-11-19T16:24:55.333Z,8.27
2022-11-19T16:27:25.500Z,7.80
2022-11-19T16:29:53.955Z,8.80
2022-11-19T16:32:25.742Z,7.67
2022-11-19T16:35:10.604Z,8.13
2022-11-19T16:37:39.737Z,7.77
2022-11-19T16:40:15.450Z,8.03
2022-11-19T16:42:44.153Z,6.80
2022-11-19T16:45:21.616Z,7.50
2022-11-19T16:47:57.381Z,7.53
2022-11-19T16:50:32.207Z,8.00
2022-11-19T16:53:13.404Z,7.40
2022-11-19T16:55:53.757Z,7.00
2022-11-19T16:58:29.810Z,7.53
2022-11-19T17:00:59.846Z,7.30
2022-11-19T17:03:34.605Z,6.97
2022-11-19T17:06:05.848Z,6.70
2022-11-19T17:08:36.931Z,7.07
2022-11-19T17:11:36.719Z,7.63
2022-11-19T17:14:27.151Z,6.83
2022-11-19T17:16:55.257Z,7.97
2022-11-19T17:19:28.536Z,7.70
2022-11-19T17:22:18.920Z,7.33
2022-11-19T17:24:48.019Z,7.87
2022-11-19T17:27:26.685Z,8.43
2022-11-19T17:29:59.838Z,8.13
2022-11-19T17:32:33.586Z,7.67
2022-11-19T17:35:01.739Z,7.20
2022-11-19T17:37:31.665Z,6.93
2022-11-19T17:39:59.852Z,6.90
2022-11-19T17:42:45.896Z,7.33
2022-11-19T17:45:14.298Z,7.43
2022-11-19T17:47:42.764Z,7.50
2022-11-19T17:50:11.811Z,7.30
2022-11-19T17:52:41.404Z,7.77
2022-11-19T17:55:16.339Z,8.57
2022-11-19T17:57:44.801Z,8.70
2022-11-19T18:00:14.801Z,7.77
2022-11-19T18:02:43.694Z,7.67
2022-11-19T18:05:16.262Z,7.77
2022-11-19T18:07:48.110Z,7.73
2022-11-19T18:10:16.378Z,8.60
2022-11-19T18:12:44.457Z,9.17
2022-11-19T18:15:17.545Z,8.07
2022-11-19T18:17:45.717Z,7.87
2022-11-19T18:20:14.323Z,8.95
2022-11-19T18:22:42.312Z,8.07
2022-11-19T18:25:17.566Z,9.33
2022-11-19T18:27:45.750Z,7.90
2022-11-19T18:30:15.357Z,7.23
2022-11-19T18:32:43.796Z,8.53
2022-11-19T18:35:16.611Z,9.33
2022-11-19T18:37:45.410Z,8.67
2022-11-19T18:40:16.427Z,7.90
2022-11-19T18:42:59.761Z,8.00
2022-11-19T18:45:28.313Z,7.70
2022-11-19T18:47:56.423Z,7.50
2022-11-19T18:50:29.828Z,7.80
2022-11-19T18:52:58.991Z,8.17
2022-11-19T18:55:27.550Z,7.67
2022-11-19T18:57:57.510Z,8.10
2022-11-19T19:00:26.789Z,7.60
2022-11-19T19:02:55.418Z,7.60
2022-11-19T19:05:24.575Z,7.90
2022-11-19T19:07:52.965Z,8.00
2022-11-19T19:10:24.845Z,8.27
2022-11-19T19:13:14.063Z,8.53
2022-11-19T19:15:42.820Z,8.50
2022-11-19T19:18:12.752Z,8.27
2022-11-19T19:20:47.244Z,9.87
2022-11-19T19:23:16.882Z,10.03
2022-11-19T19:25:48.543Z,10.67
2022-11-19T19:31:06.055Z,9.33
2022-11-19T19:33:35.831Z,8.77
2022-11-19T19:36:05.141Z,10.27
2022-11-19T19:38:34.378Z,9.57
2022-11-19T19:41:07.249Z,8.87
2022-11-19T19:43:38.079Z,8.07
2022-11-19T19:46:10.214Z,8.33
2022-11-19T19:48:40.188Z,7.67
2022-11-19T19:51:28.904Z,7.63
2022-11-19T19:53:58.470Z,9.13
2022-11-19T19:56:29.699Z,9.50
2022-11-19T19:59:03.221Z,10.03
2022-11-19T20:01:33.570Z,10.47
2022-11-19T20:04:17.794Z,9.60
2022-11-19T20:06:53.964Z,9.17
2022-11-19T20:09:23.793Z,9.23
2022-11-19T20:11:52.596Z,8.90
2022-11-19T20:14:24.046Z,8.87
2022-11-19T20:16:57.227Z,9.73
2022-11-19T20:19:28.340Z,9.10
2022-11-19T20:22:20.799Z,9.27
2022-11-19T20:24:49.275Z,8.67
2022-11-19T20:27:17.771Z,8.57
2022-11-19T20:29:51.037Z,9.13
2022-11-19T20:32:19.106Z,7.37
2022-11-19T20:34:47.289Z,8.07
2022-11-19T20:37:15.638Z,8.27
2022-11-19T20:39:46.335Z,7.53
2022-11-19T20:42:32.112Z,7.63
2022-11-19T20:45:01.953Z,7.53
2022-11-19T20:47:30.207Z,8.00
2022-11-19T20:49:58.197Z,8.57
2022-11-19T20:52:26.457Z,7.97
2022-11-19T20:54:54.904Z,8.17
2022-11-19T20:57:22.989Z,9.00
2022-11-19T20:59:51.068Z,9.30
2022-11-19T21:02:20.545Z,8.40
2022-11-19T21:04:49.943Z,8.27
2022-11-19T21:07:18.402Z,8.90
2022-11-19T21:09:46.930Z,8.83
2022-11-19T21:12:18.028Z,8.77
2022-11-19T21:14:46.594Z,7.73
2022-11-19T21:17:15.025Z,8.30
2022-11-19T21:19:44.294Z,8.60
2022-11-19T21:22:12.334Z,8.97
2022-11-19T21:24:40.298Z,8.63
2022-11-19T21:27:08.240Z,7.90
2022-11-19T21:29:38.467Z,8.80
2022-11-19T21:32:06.883Z,8.17
2022-11-19T21:34:34.840Z,8.23
2022-11-19T21:37:04.340Z,8.97
2022-11-19T21:39:32.520Z,8.77
2022-11-19T21:42:00.557Z,8.50
2022-11-19T21:44:28.516Z,8.50
2022-11-19T21:46:56.507Z,9.23
2022-11-19T21:49:24.587Z,8.73
2022-11-19T21:51:53.138Z,9.17
2022-11-19T21:54:22.443Z,9.70
2022-11-19T21:56:50.485Z,8.93
2022-11-19T21:59:18.817Z,9.10
2022-11-19T22:01:51.782Z,9.67
2022-11-19T22:04:23.278Z,9.30
2022-11-19T22:06:51.525Z,9.63
2022-11-19T22:09:20.017Z,8.97
2022-11-19T22:11:49.502Z,9.67
2022-11-19T22:14:17.845Z,9.43
2022-11-19T22:16:46.106Z,9.57
2022-11-19T22:19:15.193Z,8.77
2022-11-19T22:21:43.286Z,9.87
2022-11-19T22:24:13.538Z,9.73
2022-11-19T22:26:41.677Z,9.10
2022-11-19T22:29:11.572Z,9.23
2022-11-19T22:31:39.668Z,10.67
2022-11-19T22:34:07.896Z,10.57
2022-11-19T22:36:35.902Z,9.37
2022-11-19T22:39:03.983Z,9.70
2022-11-19T22:41:32.018Z,10.03
2022-11-19T22:44:00.265Z,9.83
2022-11-19T22:46:29.637Z,9.47
2022-11-19T22:48:57.664Z,10.27
2022-11-19T22:51:26.622Z,9.17
2022-11-19T22:53:55.620Z,8.90
2022-11-19T22:56:25.237Z,9.10
2022-11-19T22:58:53.737Z,9.67
2022-11-19T23:01:24.565Z,9.20
2022-11-19T23:03:54.627Z,9.37
2022-11-19T23:06:23.905Z,9.27
2022-11-19T23:08:52.590Z,9.07
2022-11-19T23:11:38.381Z,9.83
2022-11-19T23:14:21.149Z,8.90
2022-11-19T23:16:52.001Z,9.33
2022-11-19T23:19:22.445Z,9.77
2022-11-19T23:21:52.752Z,8.93
2022-11-19T23:24:22.530Z,9.20
2022-11-19T23:26:50.545Z,9.60
2022-11-19T23:29:19.053Z,9.80
2022-11-19T23:31:48.253Z,9.67
2022-11-19T23:34:16.548Z,9.43
2022-11-19T23:36:45.823Z,9.40
2022-11-19T23:39:16.429Z,9.47
2022-11-19T23:41:44.459Z,9.30
2022-11-19T23:44:12.614Z,8.63
2022-11-19T23:46:41.039Z,9.13
2022-11-19T23:49:10.160Z,8.93
2022-11-19T23:51:40.075Z,9.87
2022-11-19T23:54:14.040Z,9.40
2022-11-19T23:56:42.036Z,9.97
2022-11-19T23:59:10.196Z,8.77
